Huvudsida
METAR-TAF:

METAR-TAF

Flygplatser :

Alpnach, Schweiz

latitud: 46-56-19N, longitud: 8-17-03E, höjd: 440 m

Aktuellt väderrapport

Denna rapport gjordes för 24 minuter sedan, klockan 13:50 UTC
Vind 7 kt från ost/nordost, varierande mellan nordost och ost/sydost
Temperatur 29°C
Fuktighet 55%
Tryck 1018 hPa
Sikt 10 km eller mer
Inga moln under 1 500 m eller inga cumulonimbus

METAR: LSMA 241350Z 07007KT 040V110 CAVOK 29/19 Q1018 RMK BLU

Tid: 16:14 (14:14 UTC)


TAF: saknas

Aktuella väderrapporter och prognoser från 4000 flygplatser (METAR- och TAF-rapporter).

De tillgängliga stationerna syns som gula och röda prickar på kartan.

För musen över prickarna för att se namnen på stationerna.

Klicka sedan för att få väderrapporter och prognoser.

För att ändra kartan: Klicka på de gröna knapparna med ett svart kors på för att zooma in; den gröna knappen med ett streck på för att zooma ut; eller på de gröna pilarna för angränsande kartor.


METAR-TAF: